Bothell, WA

12:05 PM PDT on September 01, 2015 (GMT -0700)
Norway Vista | | Change Station
CLOSE
Current Station
Personal Weather Station
Location: Bothell, WA
Elevation: 213 ft
Nearby Weather Stations

Elev 213 ft 47.73 °N, 122.20 °W | Updated 3 days ago

Cloudy
Cloudy
63 °F
Feels Like 63 °F
N
10
Wind Variable Wind from South
Gusts 18 mph

Today
High -- | Low -- °F
--% Chance of Precip.
Yesterday
High -- | Low -- °F
Precip. -- in
6:27 AM 7:49 PM
Waning Gibbous, 87% visible
Pressure 29.84 in
Visibility 10.0 miles
Clouds Scattered Clouds 900 ft
Mostly Cloudy 1400 ft
Overcast 7000 ft
Dew Point 55 °F
Humidity 77%
Rainfall in
Snow Depth Not available.
UV 2 out of 12
Pollen .40 out of 12
Air Quality Not available.
Flu Activity Not available.
METAR KPAE 011853Z 18013KT 10SM SCT009 BKN014 OVC070 16/14 A2984 RMK AO2 RAE09 SLP103 P0000 T01610139
Pressure 29.84 in
Visibility 10.0 miles
Clouds Scattered Clouds 900 ft
Mostly Cloudy 1400 ft
Overcast 7000 ft
Dew Point 55 °F
Humidity 77%
Rainfall in
Snow Depth Not available.
UV 2 out of 12
Pollen .40 out of 12
Air Quality Not available.
Flu Activity Not available.
METAR KPAE 011853Z 18013KT 10SM SCT009 BKN014 OVC070 16/14 A2984 RMK AO2 RAE09 SLP103 P0000 T01610139

10-Day Weather Forecast

×

Almanac

Astronomy

Sep. 01, 2015 Rise Set
Actual Time
Civil Twilight
Nautical Twilight
Astronomical Twilight
Moon
Length of Visible Light
Length of Day
Tomorrow will be .
, % of the Moon is Illuminated

Today's Extremes

State Highs State Lows

Community

WunderPhotos

Upload Photos

1,851,596 photos uploaded!

WunderBlogs® & News

Nearby

Air Quality

  Air Quality AQ Index Pollutant
Not available.

Snow Depth

Station Depth Elevation

Earthquake Activity

City Distance Mag. Time & Date
Minimum magnitude displayed is 2.5.

Coastal Water Temperatures

Place Temperature

Stations

Nearby Weather Stations

Station Location Temp. Windchill Dew Point Humidity Wind Precip. Elev Updated Type